SWA2117 KOKC-KDAL
Flight info
| Callsign | SWA2117 |
|---|---|
| Flight time | 0h 40m |
| Altitude | 33000 |
| Route | KRMSN4 KRMSN AIRRE HIBIL3 |
| Aircraft | B738/M-SADE2E3GIJ4RWZ/LB1D1 |
Departure
| Time | 2026-04-24 02:46 |
|---|---|
| Airport | OKC Will Rogers World Airport (KOKC) |
Arrival
| Time | 2026-04-24 03:26 |
|---|---|
| Airport | Dallas Love Field (KDAL) |
| Time | Latitude | Longitude | Altitude | Speed | Heading |
|---|---|---|---|---|---|
| 2026-04-24 02:22 | 35.39565 | -97.59903 | 1296 ft | 0 kts | 180° |
| 2026-04-24 02:35 | 35.39580 | -97.59903 | 1296 ft | 3 kts | 180° |
| 2026-04-24 02:35 | 35.39599 | -97.59903 | 1296 ft | 2 kts | 180° |
| 2026-04-24 02:35 | 35.39616 | -97.59902 | 1296 ft | 3 kts | 204° |
| 2026-04-24 02:35 | 35.39629 | -97.59890 | 1296 ft | 3 kts | 252° |
| 2026-04-24 02:36 | 35.39632 | -97.59868 | 1296 ft | 2 kts | 269° |
| 2026-04-24 02:36 | 35.39632 | -97.59859 | 1296 ft | 0 kts | 269° |
| 2026-04-24 02:36 | 35.39632 | -97.59858 | 1296 ft | 0 kts | 269° |
| 2026-04-24 02:41 | 35.39632 | -97.59891 | 1296 ft | 7 kts | 269° |
| 2026-04-24 02:41 | 35.39631 | -97.59960 | 1296 ft | 9 kts | 270° |
| 2026-04-24 02:41 | 35.39617 | -97.60043 | 1295 ft | 11 kts | 248° |
| 2026-04-24 02:41 | 35.39578 | -97.60144 | 1291 ft | 13 kts | 244° |
| 2026-04-24 02:42 | 35.39551 | -97.60215 | 1290 ft | 9 kts | 260° |
| 2026-04-24 02:42 | 35.39592 | -97.60298 | 1289 ft | 15 kts | 314° |
| 2026-04-24 02:42 | 35.39688 | -97.60391 | 1287 ft | 16 kts | 339° |
| 2026-04-24 02:42 | 35.39798 | -97.60402 | 1288 ft | 16 kts | 359° |
| 2026-04-24 02:43 | 35.39904 | -97.60401 | 1289 ft | 15 kts | 0° |
| 2026-04-24 02:43 | 35.40006 | -97.60401 | 1291 ft | 14 kts | 359° |
| 2026-04-24 02:43 | 35.40104 | -97.60401 | 1293 ft | 14 kts | 0° |
| 2026-04-24 02:43 | 35.40205 | -97.60401 | 1295 ft | 15 kts | 360° |
| 2026-04-24 02:44 | 35.40317 | -97.60401 | 1296 ft | 17 kts | 0° |
| 2026-04-24 02:44 | 35.40441 | -97.60401 | 1296 ft | 18 kts | 0° |
| 2026-04-24 02:44 | 35.40553 | -97.60416 | 1296 ft | 13 kts | 326° |
| 2026-04-24 02:44 | 35.40568 | -97.60434 | 1296 ft | 4 kts | 308° |
| 2026-04-24 02:45 | 35.40579 | -97.60489 | 1297 ft | 8 kts | 272° |
| 2026-04-24 02:45 | 35.40557 | -97.60564 | 1297 ft | 13 kts | 208° |
| 2026-04-24 02:45 | 35.40360 | -97.60572 | 1294 ft | 62 kts | 180° |
| 2026-04-24 02:45 | 35.39671 | -97.60570 | 1289 ft | 133 kts | 178° |
| 2026-04-24 02:46 | 35.38617 | -97.60547 | 1710 ft | 166 kts | 178° |
| 2026-04-24 02:46 | 35.37410 | -97.60536 | 2491 ft | 168 kts | 182° |
| 2026-04-24 02:46 | 35.36223 | -97.60568 | 3285 ft | 179 kts | 184° |
| 2026-04-24 02:46 | 35.34856 | -97.60533 | 3521 ft | 214 kts | 180° |
| 2026-04-24 02:47 | 35.33289 | -97.60374 | 4053 ft | 235 kts | 180° |
| 2026-04-24 02:47 | 35.31638 | -97.59981 | 4825 ft | 255 kts | 161° |
| 2026-04-24 02:47 | 35.30252 | -97.58532 | 5664 ft | 279 kts | 139° |
| 2026-04-24 02:47 | 35.28920 | -97.56729 | 6334 ft | 289 kts | 140° |
| 2026-04-24 02:48 | 35.27533 | -97.54940 | 7281 ft | 290 kts | 140° |
| 2026-04-24 02:48 | 35.26124 | -97.53137 | 8085 ft | 298 kts | 140° |
| 2026-04-24 02:48 | 35.24670 | -97.51285 | 8907 ft | 304 kts | 139° |
| 2026-04-24 02:48 | 35.23193 | -97.49406 | 9810 ft | 308 kts | 139° |
| 2026-04-24 02:49 | 35.21691 | -97.47498 | 10546 ft | 318 kts | 139° |
| 2026-04-24 02:49 | 35.20084 | -97.45471 | 10765 ft | 346 kts | 139° |
| 2026-04-24 02:49 | 35.18348 | -97.43282 | 10991 ft | 370 kts | 139° |
| 2026-04-24 02:49 | 35.16529 | -97.40982 | 11543 ft | 381 kts | 138° |
| 2026-04-24 02:50 | 35.14704 | -97.38668 | 12284 ft | 385 kts | 138° |
| 2026-04-24 02:50 | 35.12840 | -97.36305 | 13070 ft | 389 kts | 139° |
| 2026-04-24 02:50 | 35.10950 | -97.33915 | 13787 ft | 394 kts | 139° |
| 2026-04-24 02:50 | 35.09035 | -97.31497 | 14455 ft | 398 kts | 139° |
| 2026-04-24 02:51 | 35.07099 | -97.29055 | 15172 ft | 402 kts | 139° |
| 2026-04-24 02:51 | 35.05149 | -97.26598 | 15974 ft | 401 kts | 139° |
| 2026-04-24 02:51 | 35.03238 | -97.24185 | 17167 ft | 390 kts | 139° |
| 2026-04-24 02:51 | 35.01372 | -97.21833 | 18295 ft | 380 kts | 139° |
| 2026-04-24 02:52 | 34.99565 | -97.19561 | 19581 ft | 367 kts | 139° |
| 2026-04-24 02:52 | 34.97815 | -97.17363 | 20799 ft | 355 kts | 140° |
| 2026-04-24 02:52 | 34.96026 | -97.15360 | 21875 ft | 345 kts | 147° |
| 2026-04-24 02:52 | 34.94149 | -97.13530 | 22649 ft | 348 kts | 148° |
| 2026-04-24 02:53 | 34.92260 | -97.11712 | 23264 ft | 353 kts | 148° |
| 2026-04-24 02:53 | 34.90334 | -97.09810 | 23809 ft | 359 kts | 146° |
| 2026-04-24 02:53 | 34.88412 | -97.07838 | 24339 ft | 364 kts | 146° |
| 2026-04-24 02:53 | 34.86471 | -97.05821 | 24850 ft | 369 kts | 145° |
| 2026-04-24 02:54 | 34.84506 | -97.03774 | 25359 ft | 374 kts | 146° |
| 2026-04-24 02:54 | 34.82519 | -97.01705 | 25889 ft | 378 kts | 146° |
| 2026-04-24 02:54 | 34.80511 | -96.99619 | 26398 ft | 382 kts | 146° |
| 2026-04-24 02:54 | 34.78478 | -96.97513 | 26877 ft | 385 kts | 146° |
| 2026-04-24 02:55 | 34.76430 | -96.95394 | 27413 ft | 388 kts | 146° |
| 2026-04-24 02:55 | 34.74362 | -96.93258 | 27875 ft | 392 kts | 146° |
| 2026-04-24 02:55 | 34.72274 | -96.91104 | 28324 ft | 397 kts | 146° |
| 2026-04-24 02:55 | 34.70185 | -96.88952 | 28762 ft | 401 kts | 146° |
| 2026-04-24 02:56 | 34.68047 | -96.86751 | 29211 ft | 405 kts | 146° |
| 2026-04-24 02:56 | 34.65890 | -96.84531 | 29662 ft | 408 kts | 146° |
| 2026-04-24 02:56 | 34.63702 | -96.82285 | 29930 ft | 416 kts | 146° |
| 2026-04-24 02:56 | 34.61480 | -96.80003 | 30259 ft | 420 kts | 146° |
| 2026-04-24 02:57 | 34.59251 | -96.77710 | 30710 ft | 420 kts | 146° |
| 2026-04-24 02:57 | 34.57019 | -96.75416 | 31125 ft | 421 kts | 146° |
| 2026-04-24 02:57 | 34.54777 | -96.73116 | 31465 ft | 424 kts | 146° |
| 2026-04-24 02:57 | 34.52518 | -96.70801 | 31849 ft | 426 kts | 146° |
| 2026-04-24 02:58 | 34.50248 | -96.68477 | 32209 ft | 428 kts | 146° |
| 2026-04-24 02:58 | 34.47963 | -96.66140 | 32523 ft | 431 kts | 146° |
| 2026-04-24 02:58 | 34.45691 | -96.63818 | 32783 ft | 436 kts | 146° |
| 2026-04-24 02:58 | 34.43336 | -96.61419 | 32751 ft | 448 kts | 146° |
| 2026-04-24 02:59 | 34.38466 | -96.56458 | 32556 ft | 464 kts | 145° |
| 2026-04-24 02:59 | 34.35994 | -96.53935 | 31870 ft | 467 kts | 145° |
| 2026-04-24 02:59 | 34.33491 | -96.51385 | 30942 ft | 476 kts | 145° |
| 2026-04-24 03:00 | 34.30925 | -96.48776 | 29940 ft | 487 kts | 145° |
| 2026-04-24 03:00 | 34.28308 | -96.46116 | 28784 ft | 495 kts | 144° |
| 2026-04-24 03:00 | 34.25653 | -96.43418 | 27772 ft | 500 kts | 144° |
| 2026-04-24 03:00 | 34.23000 | -96.40720 | 27157 ft | 495 kts | 144° |
| 2026-04-24 03:01 | 34.20387 | -96.38061 | 26698 ft | 487 kts | 144° |
| 2026-04-24 03:01 | 34.17850 | -96.35483 | 26217 ft | 480 kts | 144° |
| 2026-04-24 03:01 | 34.15309 | -96.32908 | 25669 ft | 474 kts | 144° |
| 2026-04-24 03:01 | 34.12793 | -96.30362 | 25127 ft | 469 kts | 144° |
| 2026-04-24 03:02 | 34.10302 | -96.27847 | 24604 ft | 464 kts | 144° |
| 2026-04-24 03:02 | 34.07844 | -96.25366 | 24089 ft | 459 kts | 144° |
| 2026-04-24 03:02 | 34.05407 | -96.22907 | 23575 ft | 454 kts | 144° |
| 2026-04-24 03:02 | 34.02995 | -96.20475 | 22991 ft | 450 kts | 143° |
| 2026-04-24 03:03 | 34.00604 | -96.18067 | 22402 ft | 445 kts | 143° |
| 2026-04-24 03:03 | 33.98238 | -96.15683 | 21819 ft | 441 kts | 143° |
| 2026-04-24 03:03 | 33.95893 | -96.13324 | 21236 ft | 437 kts | 143° |
| 2026-04-24 03:03 | 33.93568 | -96.10988 | 20679 ft | 433 kts | 144° |
| 2026-04-24 03:04 | 33.91132 | -96.09062 | 20339 ft | 415 kts | 162° |
| 2026-04-24 03:04 | 33.88426 | -96.08327 | 20270 ft | 388 kts | 181° |
| 2026-04-24 03:04 | 33.85788 | -96.08405 | 20014 ft | 373 kts | 193° |
| 2026-04-24 03:04 | 33.83313 | -96.09178 | 19518 ft | 365 kts | 205° |
| 2026-04-24 03:05 | 33.80955 | -96.10275 | 19062 ft | 362 kts | 206° |
| 2026-04-24 03:05 | 33.78612 | -96.11378 | 18564 ft | 361 kts | 206° |
| 2026-04-24 03:05 | 33.76271 | -96.12472 | 18117 ft | 360 kts | 205° |
| 2026-04-24 03:05 | 33.73940 | -96.13550 | 17658 ft | 357 kts | 205° |
| 2026-04-24 03:06 | 33.71631 | -96.14609 | 17249 ft | 353 kts | 205° |
| 2026-04-24 03:06 | 33.69345 | -96.15652 | 16814 ft | 350 kts | 205° |
| 2026-04-24 03:06 | 33.67078 | -96.16685 | 16383 ft | 347 kts | 205° |
| 2026-04-24 03:06 | 33.64860 | -96.17694 | 15944 ft | 344 kts | 205° |
| 2026-04-24 03:07 | 33.62629 | -96.18708 | 15532 ft | 341 kts | 205° |
| 2026-04-24 03:07 | 33.60419 | -96.19711 | 15123 ft | 338 kts | 205° |
| 2026-04-24 03:07 | 33.58226 | -96.20704 | 14719 ft | 335 kts | 205° |
| 2026-04-24 03:07 | 33.56023 | -96.21607 | 14320 ft | 334 kts | 201° |
| 2026-04-24 03:08 | 33.53827 | -96.22411 | 13832 ft | 328 kts | 201° |
| 2026-04-24 03:08 | 33.49480 | -96.23994 | 12456 ft | 326 kts | 201° |
| 2026-04-24 03:08 | 33.47327 | -96.24791 | 11874 ft | 322 kts | 201° |
| 2026-04-24 03:09 | 33.45204 | -96.25579 | 11318 ft | 317 kts | 201° |
| 2026-04-24 03:09 | 33.43129 | -96.26385 | 10870 ft | 310 kts | 203° |
| 2026-04-24 03:09 | 33.41154 | -96.27204 | 10610 ft | 297 kts | 203° |
| 2026-04-24 03:09 | 33.39252 | -96.28001 | 10460 ft | 283 kts | 204° |
| 2026-04-24 03:10 | 33.37442 | -96.28759 | 10327 ft | 269 kts | 204° |
| 2026-04-24 03:10 | 33.35708 | -96.29484 | 10221 ft | 262 kts | 204° |
| 2026-04-24 03:10 | 33.33993 | -96.30202 | 10126 ft | 261 kts | 204° |
| 2026-04-24 03:10 | 33.32278 | -96.30916 | 9997 ft | 263 kts | 204° |
| 2026-04-24 03:11 | 33.30529 | -96.31642 | 9716 ft | 266 kts | 204° |
| 2026-04-24 03:11 | 33.28789 | -96.32362 | 9420 ft | 265 kts | 203° |
| 2026-04-24 03:11 | 33.27061 | -96.33104 | 9112 ft | 262 kts | 208° |
| 2026-04-24 03:11 | 33.25661 | -96.34392 | 8920 ft | 251 kts | 231° |
| 2026-04-24 03:12 | 33.24606 | -96.36023 | 8751 ft | 247 kts | 233° |
| 2026-04-24 03:12 | 33.23556 | -96.37639 | 8584 ft | 246 kts | 232° |
| 2026-04-24 03:12 | 33.22505 | -96.39256 | 8425 ft | 247 kts | 232° |
| 2026-04-24 03:12 | 33.21463 | -96.40860 | 8257 ft | 248 kts | 232° |
| 2026-04-24 03:13 | 33.20404 | -96.42488 | 8104 ft | 248 kts | 232° |
| 2026-04-24 03:13 | 33.19346 | -96.44114 | 7930 ft | 248 kts | 232° |
| 2026-04-24 03:13 | 33.18287 | -96.45740 | 7777 ft | 248 kts | 232° |
| 2026-04-24 03:13 | 33.17241 | -96.47375 | 7615 ft | 248 kts | 234° |
| 2026-04-24 03:14 | 33.16252 | -96.49054 | 7456 ft | 247 kts | 235° |
| 2026-04-24 03:14 | 33.15276 | -96.50735 | 7289 ft | 247 kts | 235° |
| 2026-04-24 03:14 | 33.14297 | -96.52418 | 7140 ft | 247 kts | 235° |
| 2026-04-24 03:14 | 33.13318 | -96.54097 | 6981 ft | 246 kts | 235° |
| 2026-04-24 03:15 | 33.12338 | -96.55773 | 6811 ft | 246 kts | 234° |
| 2026-04-24 03:15 | 33.11359 | -96.57444 | 6670 ft | 245 kts | 234° |
| 2026-04-24 03:15 | 33.10382 | -96.59110 | 6506 ft | 245 kts | 234° |
| 2026-04-24 03:15 | 33.09405 | -96.60771 | 6352 ft | 244 kts | 234° |
| 2026-04-24 03:16 | 33.08435 | -96.62419 | 6191 ft | 243 kts | 234° |
| 2026-04-24 03:16 | 33.07480 | -96.64042 | 6028 ft | 242 kts | 234° |
| 2026-04-24 03:16 | 33.06527 | -96.65686 | 5862 ft | 241 kts | 237° |
| 2026-04-24 03:16 | 33.05990 | -96.67577 | 5699 ft | 245 kts | 258° |
| 2026-04-24 03:17 | 33.05777 | -96.69581 | 5542 ft | 244 kts | 257° |
| 2026-04-24 03:17 | 33.05516 | -96.71580 | 5381 ft | 243 kts | 256° |
| 2026-04-24 03:17 | 33.05250 | -96.73563 | 5220 ft | 242 kts | 256° |
| 2026-04-24 03:17 | 33.04984 | -96.75542 | 5062 ft | 241 kts | 255° |
| 2026-04-24 03:18 | 33.04719 | -96.77511 | 4896 ft | 240 kts | 255° |
| 2026-04-24 03:18 | 33.04456 | -96.79467 | 4762 ft | 238 kts | 255° |
| 2026-04-24 03:18 | 33.04195 | -96.81413 | 4610 ft | 237 kts | 254° |
| 2026-04-24 03:18 | 33.03932 | -96.83354 | 4452 ft | 237 kts | 254° |
| 2026-04-24 03:19 | 33.03669 | -96.85297 | 4319 ft | 238 kts | 254° |
| 2026-04-24 03:19 | 33.03403 | -96.87258 | 4163 ft | 241 kts | 254° |
| 2026-04-24 03:19 | 33.03135 | -96.89235 | 3997 ft | 243 kts | 253° |
| 2026-04-24 03:19 | 33.02871 | -96.91195 | 3820 ft | 243 kts | 253° |
| 2026-04-24 03:20 | 33.02602 | -96.93181 | 3671 ft | 242 kts | 253° |
| 2026-04-24 03:20 | 33.02334 | -96.95159 | 3491 ft | 240 kts | 253° |
| 2026-04-24 03:20 | 33.02073 | -96.97092 | 3362 ft | 233 kts | 251° |
| 2026-04-24 03:20 | 33.01500 | -96.98802 | 3164 ft | 214 kts | 222° |
| 2026-04-24 03:21 | 33.00323 | -96.99659 | 3059 ft | 189 kts | 192° |
| 2026-04-24 03:21 | 32.99097 | -96.99836 | 2927 ft | 167 kts | 184° |
| 2026-04-24 03:21 | 32.98019 | -96.99585 | 2772 ft | 156 kts | 155° |
| 2026-04-24 03:21 | 32.97245 | -96.98742 | 2671 ft | 142 kts | 149° |
| 2026-04-24 03:22 | 32.96478 | -96.98103 | 2647 ft | 133 kts | 154° |
| 2026-04-24 03:22 | 32.95803 | -96.97363 | 2584 ft | 130 kts | 146° |
| 2026-04-24 03:22 | 32.95175 | -96.96636 | 2474 ft | 122 kts | 149° |
| 2026-04-24 03:22 | 32.94556 | -96.95936 | 2399 ft | 123 kts | 148° |
| 2026-04-24 03:23 | 32.93940 | -96.95228 | 2326 ft | 123 kts | 148° |
| 2026-04-24 03:23 | 32.93338 | -96.94534 | 2230 ft | 121 kts | 148° |
| 2026-04-24 03:23 | 32.92733 | -96.93831 | 2166 ft | 122 kts | 147° |
| 2026-04-24 03:23 | 32.92121 | -96.93121 | 2111 ft | 123 kts | 146° |
| 2026-04-24 03:24 | 32.91508 | -96.92408 | 2028 ft | 123 kts | 145° |
| 2026-04-24 03:24 | 32.90899 | -96.91700 | 1924 ft | 124 kts | 145° |
| 2026-04-24 03:24 | 32.90312 | -96.90976 | 1631 ft | 119 kts | 145° |
| 2026-04-24 03:24 | 32.89689 | -96.90276 | 1324 ft | 126 kts | 142° |
| 2026-04-24 03:25 | 32.89031 | -96.89546 | 1194 ft | 130 kts | 137° |
| 2026-04-24 03:25 | 32.88398 | -96.88766 | 1083 ft | 131 kts | 140° |
| 2026-04-24 03:25 | 32.87757 | -96.88020 | 1000 ft | 127 kts | 139° |
| 2026-04-24 03:25 | 32.87127 | -96.87292 | 914 ft | 127 kts | 137° |
| 2026-04-24 03:26 | 32.86500 | -96.86546 | 805 ft | 129 kts | 140° |
| 2026-04-24 03:26 | 32.85878 | -96.85839 | 608 ft | 119 kts | 140° |
| 2026-04-24 03:26 | 32.85317 | -96.85196 | 491 ft | 101 kts | 141° |
| 2026-04-24 03:26 | 32.84974 | -96.84807 | 489 ft | 36 kts | 136° |
| 2026-04-24 03:27 | 32.84827 | -96.84636 | 486 ft | 22 kts | 134° |
| 2026-04-24 03:27 | 32.84736 | -96.84616 | 485 ft | 12 kts | 213° |
| 2026-04-24 03:27 | 32.84688 | -96.84663 | 490 ft | 0 kts | 220° |
| 2026-04-24 03:27 | 32.84682 | -96.84661 | 490 ft | 1 kts | 163° |
| 2026-04-24 03:28 | 32.84660 | -96.84628 | 490 ft | 10 kts | 129° |
| 2026-04-24 03:28 | 32.84599 | -96.84604 | 486 ft | 10 kts | 212° |
| 2026-04-24 03:28 | 32.84544 | -96.84666 | 488 ft | 11 kts | 235° |
| 2026-04-24 03:28 | 32.84545 | -96.84751 | 484 ft | 10 kts | 310° |
| 2026-04-24 03:29 | 32.84561 | -96.84772 | 490 ft | 0 kts | 317° |